createdAt,value
2023-02-14T00:00:49.478Z,9.02
2023-02-14T00:05:52.366Z,11.65
2023-02-14T00:10:55.044Z,8.10
2023-02-14T00:15:57.794Z,10.70
2023-02-14T00:21:01.068Z,8.48
2023-02-14T00:26:03.952Z,10.55
2023-02-14T00:31:06.770Z,9.75
2023-02-14T00:36:10.763Z,12.32
2023-02-14T00:41:19.555Z,14.85
2023-02-14T00:46:23.296Z,12.60
2023-02-14T00:51:26.231Z,8.75
2023-02-14T00:56:29.039Z,11.65
2023-02-14T01:01:31.761Z,7.45
2023-02-14T01:06:35.099Z,8.68
2023-02-14T01:16:40.477Z,12.90
2023-02-14T01:21:43.272Z,12.23
2023-02-14T01:26:45.949Z,12.50
2023-02-14T01:31:49.605Z,9.88
2023-02-14T01:36:53.213Z,14.57
2023-02-14T01:41:56.983Z,14.50
2023-02-14T01:47:01.508Z,13.90
2023-02-14T01:52:12.940Z,14.55
2023-02-14T01:57:18.316Z,10.15
2023-02-14T02:02:24.190Z,13.50
2023-02-14T02:07:27.840Z,13.10
2023-02-14T02:12:36.021Z,10.52
2023-02-14T02:17:53.727Z,13.88
2023-02-14T02:23:29.120Z,6.55
2023-02-14T02:29:08.803Z,12.60
2023-02-14T02:34:39.052Z,11.85
2023-02-14T02:40:19.895Z,9.60
2023-02-14T02:46:10.041Z,11.95
2023-02-14T02:51:37.140Z,16.20
2023-02-14T02:56:47.476Z,12.40
2023-02-14T03:02:07.463Z,12.32
2023-02-14T03:07:28.727Z,14.07
2023-02-14T03:12:34.419Z,12.25
2023-02-14T03:18:08.582Z,12.40
2023-02-14T03:23:32.332Z,10.77
2023-02-14T03:28:48.286Z,13.68
2023-02-14T03:33:58.629Z,12.95
2023-02-14T03:39:08.805Z,9.95
2023-02-14T03:44:13.787Z,10.85
2023-02-14T03:49:20.689Z,14.65
2023-02-14T03:54:25.077Z,13.30
2023-02-14T03:59:29.258Z,13.70
2023-02-14T04:04:36.235Z,13.35
2023-02-14T04:09:38.923Z,7.93
2023-02-14T04:14:41.699Z,13.98
2023-02-14T04:19:44.370Z,12.70
2023-02-14T04:24:47.191Z,10.85
2023-02-14T04:29:50.566Z,11.57
2023-02-14T04:34:53.850Z,15.85
2023-02-14T04:39:56.533Z,16.02
2023-02-14T04:44:59.347Z,9.77
2023-02-14T04:50:02.118Z,13.02
2023-02-14T04:55:06.063Z,14.80
2023-02-14T05:00:09.484Z,13.88
2023-02-14T05:05:12.282Z,12.27
2023-02-14T05:10:15.324Z,14.15
2023-02-14T05:15:18.074Z,13.57
2023-02-14T05:20:21.032Z,14.23
2023-02-14T05:25:23.743Z,12.05
2023-02-14T05:30:28.393Z,9.23
2023-02-14T05:35:32.389Z,8.70
2023-02-14T05:40:35.200Z,9.00
2023-02-14T05:45:38.116Z,15.13
2023-02-14T05:50:42.225Z,10.05
2023-02-14T05:55:44.995Z,11.93
2023-02-14T06:00:47.698Z,12.75
2023-02-14T06:05:50.543Z,7.53
2023-02-14T06:10:53.251Z,11.43
2023-02-14T06:15:55.945Z,10.63
2023-02-14T06:20:59.152Z,12.07
2023-02-14T06:26:01.998Z,10.75
2023-02-14T06:31:04.997Z,8.17
2023-02-14T06:36:08.073Z,10.45
2023-02-14T06:41:12.067Z,12.35
2023-02-14T06:46:15.911Z,7.95
2023-02-14T06:51:18.804Z,10.30
2023-02-14T06:56:21.557Z,11.95
2023-02-14T07:01:24.347Z,9.20
2023-02-14T07:06:27.131Z,7.20
2023-02-14T07:11:29.823Z,9.80
2023-02-14T07:16:32.551Z,9.50
2023-02-14T07:21:35.445Z,10.93
2023-02-14T07:26:38.159Z,7.63
2023-02-14T07:31:41.110Z,12.40
2023-02-14T07:36:44.565Z,13.23
2023-02-14T07:41:47.213Z,12.00
2023-02-14T07:46:54.489Z,8.48
2023-02-14T07:51:57.214Z,9.37
2023-02-14T07:56:59.981Z,11.67
2023-02-14T08:02:02.675Z,13.18
2023-02-14T08:07:05.356Z,11.13
2023-02-14T08:12:26.307Z,9.52
2023-02-14T08:17:28.977Z,8.95
2023-02-14T08:22:32.035Z,10.68
2023-02-14T08:27:34.843Z,13.38
2023-02-14T08:32:37.783Z,11.55
2023-02-14T08:37:40.979Z,11.38
2023-02-14T08:42:43.644Z,12.80
2023-02-14T08:47:46.574Z,12.77
2023-02-14T08:52:49.325Z,14.93
2023-02-14T08:57:52.149Z,13.48
2023-02-14T09:02:54.929Z,11.37
2023-02-14T09:07:59.951Z,10.40
2023-02-14T09:13:02.745Z,13.75
2023-02-14T09:18:05.618Z,13.57
2023-02-14T09:23:08.293Z,15.80
2023-02-14T09:28:11.223Z,14.50
2023-02-14T09:33:14.660Z,13.27
2023-02-14T09:38:18.373Z,9.97
2023-02-14T09:43:32.855Z,13.75
2023-02-14T09:48:44.236Z,15.40
2023-02-14T09:53:54.792Z,12.73
2023-02-14T09:59:29.321Z,15.35
2023-02-14T10:04:33.181Z,12.68
2023-02-14T10:10:11.099Z,14.32
2023-02-14T10:15:24.356Z,11.63
2023-02-14T10:20:31.825Z,16.00
2023-02-14T10:25:47.074Z,16.23
2023-02-14T10:31:05.366Z,15.77
2023-02-14T10:36:25.601Z,12.07
2023-02-14T10:41:38.199Z,16.42
2023-02-14T10:46:49.787Z,12.07
2023-02-14T10:51:58.118Z,13.75
2023-02-14T10:57:03.872Z,22.45
2023-02-14T11:02:10.669Z,18.98
2023-02-14T11:07:18.084Z,13.77
2023-02-14T11:12:38.536Z,20.40
2023-02-14T11:17:42.589Z,19.65
2023-02-14T11:22:45.337Z,15.45
2023-02-14T11:27:50.587Z,13.03
2023-02-14T11:32:56.518Z,17.00
2023-02-14T11:37:59.327Z,15.43
2023-02-14T11:43:19.594Z,19.75
2023-02-14T11:48:37.888Z,17.67
2023-02-14T11:53:56.469Z,17.70
2023-02-14T11:59:04.210Z,20.20
2023-02-14T12:04:14.294Z,17.50
2023-02-14T12:09:23.140Z,13.88
2023-02-14T12:14:28.972Z,17.33
2023-02-14T12:19:42.895Z,15.03
2023-02-14T12:24:54.843Z,16.20
2023-02-14T12:30:07.585Z,18.15
2023-02-14T12:35:16.498Z,22.38
2023-02-14T12:40:23.148Z,14.18
2023-02-14T12:45:48.051Z,17.13
2023-02-14T12:50:54.557Z,19.00
2023-02-14T12:56:22.973Z,24.08
2023-02-14T13:01:49.833Z,20.73
2023-02-14T13:06:56.173Z,24.60
2023-02-14T13:12:01.460Z,20.50
2023-02-14T13:17:17.650Z,25.08
2023-02-14T13:22:23.121Z,24.10
2023-02-14T13:27:29.898Z,25.95
2023-02-14T13:32:39.312Z,18.55
2023-02-14T13:37:47.389Z,20.88
2023-02-14T13:42:51.449Z,19.55
2023-02-14T13:48:15.411Z,23.25
2023-02-14T13:53:41.974Z,23.27
2023-02-14T13:59:05.853Z,19.75
2023-02-14T14:04:27.244Z,21.40
2023-02-14T14:09:45.288Z,21.25
2023-02-14T14:15:08.424Z,23.42
2023-02-14T14:20:16.895Z,18.55
2023-02-14T14:25:37.897Z,24.58
2023-02-14T14:30:44.838Z,21.77
2023-02-14T14:36:03.059Z,22.38
2023-02-14T14:41:06.190Z,21.50
2023-02-14T14:46:12.001Z,20.20
2023-02-14T14:51:34.940Z,21.83
2023-02-14T14:56:45.152Z,18.95
2023-02-14T15:01:51.765Z,23.80
2023-02-14T15:06:56.831Z,17.75
2023-02-14T15:12:19.975Z,19.25
2023-02-14T15:17:26.439Z,13.13
2023-02-14T15:22:34.587Z,17.13
2023-02-14T15:27:41.072Z,20.00
2023-02-14T15:32:43.962Z,15.43
2023-02-14T15:37:47.400Z,13.52
2023-02-14T15:42:51.027Z,14.10
2023-02-14T15:47:59.620Z,15.80
2023-02-14T15:53:20.767Z,17.75
2023-02-14T15:58:27.130Z,15.23
2023-02-14T16:03:34.223Z,14.32
2023-02-14T16:08:39.038Z,17.90
2023-02-14T16:13:46.665Z,16.95
2023-02-14T16:18:52.508Z,14.27
2023-02-14T16:24:11.147Z,15.77
2023-02-14T16:29:18.086Z,16.77
2023-02-14T16:34:21.054Z,12.02
2023-02-14T16:39:25.440Z,12.23
2023-02-14T16:44:28.193Z,14.52
2023-02-14T16:49:30.805Z,15.27
2023-02-14T16:54:33.515Z,13.38
2023-02-14T16:59:36.429Z,12.02
2023-02-14T17:04:39.114Z,12.43
2023-02-14T17:09:45.210Z,13.82
2023-02-14T17:14:50.445Z,22.13
2023-02-14T17:19:53.373Z,19.00
2023-02-14T17:24:57.178Z,16.38
2023-02-14T17:30:01.583Z,17.52
2023-02-14T17:35:09.179Z,11.45
2023-02-14T17:40:13.312Z,12.43
2023-02-14T17:45:16.008Z,12.88
2023-02-14T17:50:18.843Z,12.65
2023-02-14T18:00:24.743Z,17.33
2023-02-14T18:10:30.434Z,14.32
2023-02-14T18:15:33.828Z,12.93
2023-02-14T18:20:36.537Z,13.88
2023-02-14T18:25:39.369Z,12.23
2023-02-14T18:30:42.118Z,13.23
2023-02-14T18:40:47.992Z,14.95
2023-02-14T18:45:50.761Z,21.27
2023-02-14T18:50:53.774Z,21.80
2023-02-14T18:55:56.584Z,20.48
2023-02-14T19:00:59.674Z,20.95
2023-02-14T19:06:02.415Z,20.45
2023-02-14T19:11:10.362Z,23.63
2023-02-14T19:16:16.019Z,18.83
2023-02-14T19:21:22.211Z,22.52
2023-02-14T19:26:38.019Z,18.75
2023-02-14T19:31:45.413Z,20.95
2023-02-14T19:36:49.122Z,20.70
2023-02-14T19:41:52.348Z,18.42
2023-02-14T19:46:56.821Z,18.73
2023-02-14T19:52:00.051Z,22.38
2023-02-14T19:57:02.920Z,21.75
2023-02-14T20:02:05.632Z,18.92
2023-02-14T20:07:08.781Z,20.17
2023-02-14T20:12:11.785Z,20.23
2023-02-14T20:17:15.330Z,25.70
2023-02-14T20:22:18.365Z,19.48
2023-02-14T20:27:21.276Z,20.25
2023-02-14T20:32:24.017Z,17.85
2023-02-14T20:37:26.724Z,19.90
2023-02-14T20:42:29.387Z,18.27
2023-02-14T20:47:32.071Z,23.50
2023-02-14T20:52:37.041Z,17.55
2023-02-14T20:57:39.749Z,21.73
2023-02-14T21:02:45.557Z,19.23
2023-02-14T21:07:48.362Z,20.17
2023-02-14T21:12:53.151Z,23.02
2023-02-14T21:17:55.833Z,23.23
2023-02-14T21:22:58.493Z,20.60
2023-02-14T21:28:01.218Z,17.85
2023-02-14T21:33:04.430Z,19.10
2023-02-14T21:38:07.354Z,19.55
2023-02-14T21:43:10.125Z,21.90
2023-02-14T21:48:31.057Z,16.30
2023-02-14T21:53:33.957Z,14.63
2023-02-14T21:58:40.302Z,18.08
2023-02-14T22:03:43.036Z,19.85
2023-02-14T22:08:45.889Z,19.20
2023-02-14T22:13:48.731Z,22.25
2023-02-14T22:18:51.994Z,23.58
2023-02-14T22:23:56.043Z,20.98
2023-02-14T22:29:00.713Z,21.23
2023-02-14T22:34:05.304Z,18.33
2023-02-14T22:39:08.121Z,20.83
2023-02-14T22:44:11.268Z,17.02
2023-02-14T22:49:14.385Z,15.65
2023-02-14T22:54:17.269Z,16.77
2023-02-14T22:59:24.727Z,16.02
2023-02-14T23:04:29.994Z,19.50
2023-02-14T23:09:32.717Z,21.50
2023-02-14T23:14:54.259Z,18.95
2023-02-14T23:20:15.471Z,16.90
2023-02-14T23:25:18.183Z,16.17
2023-02-14T23:30:21.148Z,13.50
2023-02-14T23:35:23.981Z,15.40
2023-02-14T23:40:26.638Z,15.65
2023-02-14T23:45:35.047Z,15.90
2023-02-14T23:50:38.638Z,14.75
2023-02-14T23:55:41.266Z,13.45
